sensor_id;sensor_type;location;lat;lon;timestamp;temperature;humidity
10905;DHT22;5505;51.450;9.254;2023-08-01T00:01:53;16.00;99.90
10905;DHT22;5505;51.450;9.254;2023-08-01T00:04:41;16.00;99.90
10905;DHT22;5505;51.450;9.254;2023-08-01T00:07:28;16.10;99.90
10905;DHT22;5505;51.450;9.254;2023-08-01T00:10:15;16.00;99.90
10905;DHT22;5505;51.450;9.254;2023-08-01T00:13:02;16.00;99.90
10905;DHT22;5505;51.450;9.254;2023-08-01T00:15:49;16.10;99.90
10905;DHT22;5505;51.450;9.254;2023-08-01T00:18:36;16.10;99.90
10905;DHT22;5505;51.450;9.254;2023-08-01T00:21:24;16.00;99.90
10905;DHT22;5505;51.450;9.254;2023-08-01T00:24:11;16.10;99.90
10905;DHT22;5505;51.450;9.254;2023-08-01T00:26:57;16.10;99.90
10905;DHT22;5505;51.450;9.254;2023-08-01T00:29:45;16.10;99.90
10905;DHT22;5505;51.450;9.254;2023-08-01T00:32:32;16.20;99.90
10905;DHT22;5505;51.450;9.254;2023-08-01T00:35:18;16.50;99.90
10905;DHT22;5505;51.450;9.254;2023-08-01T00:38:06;16.20;99.90
10905;DHT22;5505;51.450;9.254;2023-08-01T00:40:53;16.60;99.90
10905;DHT22;5505;51.450;9.254;2023-08-01T00:43:40;16.20;99.90
10905;DHT22;5505;51.450;9.254;2023-08-01T00:46:27;16.20;99.90
10905;DHT22;5505;51.450;9.254;2023-08-01T00:49:14;16.20;99.90
10905;DHT22;5505;51.450;9.254;2023-08-01T00:52:01;16.20;99.90
10905;DHT22;5505;51.450;9.254;2023-08-01T00:54:49;16.20;99.90
10905;DHT22;5505;51.450;9.254;2023-08-01T00:57:36;16.10;99.90
10905;DHT22;5505;51.450;9.254;2023-08-01T01:00:23;16.10;99.90
10905;DHT22;5505;51.450;9.254;2023-08-01T01:03:13;16.10;99.90
10905;DHT22;5505;51.450;9.254;2023-08-01T01:06:05;16.10;99.90
10905;DHT22;5505;51.450;9.254;2023-08-01T01:08:52;16.00;99.90
10905;DHT22;5505;51.450;9.254;2023-08-01T01:11:42;16.10;99.90
10905;DHT22;5505;51.450;9.254;2023-08-01T01:14:29;16.20;99.90
10905;DHT22;5505;51.450;9.254;2023-08-01T01:17:16;16.10;99.90
10905;DHT22;5505;51.450;9.254;2023-08-01T01:20:03;16.20;99.90
10905;DHT22;5505;51.450;9.254;2023-08-01T01:22:51;16.20;99.90
10905;DHT22;5505;51.450;9.254;2023-08-01T01:25:40;16.20;99.90
10905;DHT22;5505;51.450;9.254;2023-08-01T01:28:28;16.20;99.90
10905;DHT22;5505;51.450;9.254;2023-08-01T01:31:15;16.20;99.90
10905;DHT22;5505;51.450;9.254;2023-08-01T01:34:03;16.30;99.90
10905;DHT22;5505;51.450;9.254;2023-08-01T01:36:50;16.20;99.90
10905;DHT22;5505;51.450;9.254;2023-08-01T01:39:38;16.20;99.90
10905;DHT22;5505;51.450;9.254;2023-08-01T01:42:25;17.80;99.90
10905;DHT22;5505;51.450;9.254;2023-08-01T01:45:11;16.20;99.90
10905;DHT22;5505;51.450;9.254;2023-08-01T01:47:58;16.20;99.90
10905;DHT22;5505;51.450;9.254;2023-08-01T01:50:45;16.10;99.90
10905;DHT22;5505;51.450;9.254;2023-08-01T01:53:32;16.20;99.90
10905;DHT22;5505;51.450;9.254;2023-08-01T01:56:20;16.20;99.90
10905;DHT22;5505;51.450;9.254;2023-08-01T01:59:06;16.20;99.90
10905;DHT22;5505;51.450;9.254;2023-08-01T02:01:53;16.20;99.90
10905;DHT22;5505;51.450;9.254;2023-08-01T02:04:40;16.20;99.90
10905;DHT22;5505;51.450;9.254;2023-08-01T02:07:27;16.10;99.90
10905;DHT22;5505;51.450;9.254;2023-08-01T02:10:13;16.10;99.90
10905;DHT22;5505;51.450;9.254;2023-08-01T02:13:02;16.10;99.90
10905;DHT22;5505;51.450;9.254;2023-08-01T02:15:48;16.10;99.90
10905;DHT22;5505;51.450;9.254;2023-08-01T02:18:35;16.10;99.90
10905;DHT22;5505;51.450;9.254;2023-08-01T02:21:22;16.10;99.90
10905;DHT22;5505;51.450;9.254;2023-08-01T02:24:09;16.10;99.90
10905;DHT22;5505;51.450;9.254;2023-08-01T02:26:56;16.10;99.90
10905;DHT22;5505;51.450;9.254;2023-08-01T02:29:45;16.20;99.90
10905;DHT22;5505;51.450;9.254;2023-08-01T02:32:32;16.10;99.90
10905;DHT22;5505;51.450;9.254;2023-08-01T02:35:19;16.10;99.90
10905;DHT22;5505;51.450;9.254;2023-08-01T02:38:05;16.10;99.90
10905;DHT22;5505;51.450;9.254;2023-08-01T02:40:52;16.10;99.90
10905;DHT22;5505;51.450;9.254;2023-08-01T02:43:39;16.00;99.90
10905;DHT22;5505;51.450;9.254;2023-08-01T02:46:28;16.00;99.90
10905;DHT22;5505;51.450;9.254;2023-08-01T02:49:15;16.10;99.90
10905;DHT22;5505;51.450;9.254;2023-08-01T02:52:02;16.10;99.90
10905;DHT22;5505;51.450;9.254;2023-08-01T02:54:49;16.10;99.90
10905;DHT22;5505;51.450;9.254;2023-08-01T02:57:36;16.10;99.90
10905;DHT22;5505;51.450;9.254;2023-08-01T03:00:22;16.10;99.90
10905;DHT22;5505;51.450;9.254;2023-08-01T03:03:11;16.10;99.90
10905;DHT22;5505;51.450;9.254;2023-08-01T03:05:57;16.00;99.90
10905;DHT22;5505;51.450;9.254;2023-08-01T03:08:45;16.10;99.90
10905;DHT22;5505;51.450;9.254;2023-08-01T03:11:33;16.10;99.90
10905;DHT22;5505;51.450;9.254;2023-08-01T03:14:20;16.10;99.90
10905;DHT22;5505;51.450;9.254;2023-08-01T03:17:06;16.10;99.90
10905;DHT22;5505;51.450;9.254;2023-08-01T03:19:55;16.10;99.90
10905;DHT22;5505;51.450;9.254;2023-08-01T03:22:41;16.50;99.90
10905;DHT22;5505;51.450;9.254;2023-08-01T03:25:28;16.20;99.90
10905;DHT22;5505;51.450;9.254;2023-08-01T03:28:15;16.30;99.90
10905;DHT22;5505;51.450;9.254;2023-08-01T03:31:02;16.10;99.90
10905;DHT22;5505;51.450;9.254;2023-08-01T03:33:49;16.10;99.90
10905;DHT22;5505;51.450;9.254;2023-08-01T03:36:37;16.60;99.90
10905;DHT22;5505;51.450;9.254;2023-08-01T03:39:23;16.20;99.90
10905;DHT22;5505;51.450;9.254;2023-08-01T03:42:10;16.30;99.90
10905;DHT22;5505;51.450;9.254;2023-08-01T03:44:57;16.00;99.90
10905;DHT22;5505;51.450;9.254;2023-08-01T03:47:44;16.10;99.90
10905;DHT22;5505;51.450;9.254;2023-08-01T03:50:30;16.00;99.90
10905;DHT22;5505;51.450;9.254;2023-08-01T03:53:18;16.00;99.90
10905;DHT22;5505;51.450;9.254;2023-08-01T03:56:05;16.10;99.90
10905;DHT22;5505;51.450;9.254;2023-08-01T03:58:52;16.10;99.90
10905;DHT22;5505;51.450;9.254;2023-08-01T04:01:39;16.00;99.90
10905;DHT22;5505;51.450;9.254;2023-08-01T04:04:27;16.10;99.90
10905;DHT22;5505;51.450;9.254;2023-08-01T04:07:15;16.10;99.90
10905;DHT22;5505;51.450;9.254;2023-08-01T04:10:04;16.00;99.90
10905;DHT22;5505;51.450;9.254;2023-08-01T04:12:51;16.00;99.90
10905;DHT22;5505;51.450;9.254;2023-08-01T04:15:38;16.00;99.90
10905;DHT22;5505;51.450;9.254;2023-08-01T04:18:24;15.90;99.90
10905;DHT22;5505;51.450;9.254;2023-08-01T04:21:13;16.00;99.90
10905;DHT22;5505;51.450;9.254;2023-08-01T04:24:00;16.00;99.90
10905;DHT22;5505;51.450;9.254;2023-08-01T04:26:48;16.10;99.90
10905;DHT22;5505;51.450;9.254;2023-08-01T04:29:34;16.10;99.90
10905;DHT22;5505;51.450;9.254;2023-08-01T04:32:21;16.10;99.90
10905;DHT22;5505;51.450;9.254;2023-08-01T04:35:08;16.20;99.90
10905;DHT22;5505;51.450;9.254;2023-08-01T04:37:55;16.10;99.90
10905;DHT22;5505;51.450;9.254;2023-08-01T04:40:42;16.10;99.90
10905;DHT22;5505;51.450;9.254;2023-08-01T04:43:30;15.90;99.90
10905;DHT22;5505;51.450;9.254;2023-08-01T04:46:17;16.30;99.90
10905;DHT22;5505;51.450;9.254;2023-08-01T04:49:03;15.80;99.90
10905;DHT22;5505;51.450;9.254;2023-08-01T04:51:50;16.60;99.90
10905;DHT22;5505;51.450;9.254;2023-08-01T04:54:37;15.70;99.90
10905;DHT22;5505;51.450;9.254;2023-08-01T04:57:24;15.60;99.90
10905;DHT22;5505;51.450;9.254;2023-08-01T05:00:13;15.80;99.90
10905;DHT22;5505;51.450;9.254;2023-08-01T05:03:00;15.60;99.90
10905;DHT22;5505;51.450;9.254;2023-08-01T05:05:47;15.50;99.90
10905;DHT22;5505;51.450;9.254;2023-08-01T05:08:33;15.60;99.90
10905;DHT22;5505;51.450;9.254;2023-08-01T05:11:20;15.60;99.90
10905;DHT22;5505;51.450;9.254;2023-08-01T05:14:07;15.50;99.90
10905;DHT22;5505;51.450;9.254;2023-08-01T05:16:55;16.00;99.90
10905;DHT22;5505;51.450;9.254;2023-08-01T05:19:42;15.50;99.90
10905;DHT22;5505;51.450;9.254;2023-08-01T05:22:29;15.50;99.90
10905;DHT22;5505;51.450;9.254;2023-08-01T05:25:15;15.40;99.90
10905;DHT22;5505;51.450;9.254;2023-08-01T05:28:02;16.20;99.90
10905;DHT22;5505;51.450;9.254;2023-08-01T05:30:49;15.50;99.90
10905;DHT22;5505;51.450;9.254;2023-08-01T05:33:37;15.50;99.90
10905;DHT22;5505;51.450;9.254;2023-08-01T05:36:24;15.50;99.90
10905;DHT22;5505;51.450;9.254;2023-08-01T05:39:11;15.50;99.90
10905;DHT22;5505;51.450;9.254;2023-08-01T05:41:58;15.40;99.90
10905;DHT22;5505;51.450;9.254;2023-08-01T05:44:44;15.40;99.90
10905;DHT22;5505;51.450;9.254;2023-08-01T05:47:31;15.40;99.90
10905;DHT22;5505;51.450;9.254;2023-08-01T05:50:19;15.40;99.90
10905;DHT22;5505;51.450;9.254;2023-08-01T05:53:06;15.30;99.90
10905;DHT22;5505;51.450;9.254;2023-08-01T05:55:53;15.30;99.90
10905;DHT22;5505;51.450;9.254;2023-08-01T05:58:40;15.30;99.90
10905;DHT22;5505;51.450;9.254;2023-08-01T06:01:27;15.30;99.90
10905;DHT22;5505;51.450;9.254;2023-08-01T06:04:14;15.30;99.90
10905;DHT22;5505;51.450;9.254;2023-08-01T06:07:02;15.30;99.90
10905;DHT22;5505;51.450;9.254;2023-08-01T06:09:49;15.00;99.90
10905;DHT22;5505;51.450;9.254;2023-08-01T06:12:37;15.20;99.90
10905;DHT22;5505;51.450;9.254;2023-08-01T06:15:23;15.20;99.90
10905;DHT22;5505;51.450;9.254;2023-08-01T06:18:10;15.20;99.90
10905;DHT22;5505;51.450;9.254;2023-08-01T06:20:57;15.20;99.90
10905;DHT22;5505;51.450;9.254;2023-08-01T06:23:46;15.20;99.90
10905;DHT22;5505;51.450;9.254;2023-08-01T06:26:32;15.20;99.90
10905;DHT22;5505;51.450;9.254;2023-08-01T06:29:19;15.20;99.90
10905;DHT22;5505;51.450;9.254;2023-08-01T06:32:06;15.20;99.90
10905;DHT22;5505;51.450;9.254;2023-08-01T06:34:53;15.20;99.90
10905;DHT22;5505;51.450;9.254;2023-08-01T06:37:40;15.20;99.90
10905;DHT22;5505;51.450;9.254;2023-08-01T06:40:28;15.20;99.90
10905;DHT22;5505;51.450;9.254;2023-08-01T06:43:15;15.20;99.90
10905;DHT22;5505;51.450;9.254;2023-08-01T06:46:01;15.20;99.90
10905;DHT22;5505;51.450;9.254;2023-08-01T06:48:48;15.30;99.90
10905;DHT22;5505;51.450;9.254;2023-08-01T06:51:35;15.40;99.90
10905;DHT22;5505;51.450;9.254;2023-08-01T06:54:22;15.40;99.90
10905;DHT22;5505;51.450;9.254;2023-08-01T06:57:10;15.40;99.90
10905;DHT22;5505;51.450;9.254;2023-08-01T06:59:57;15.40;99.90
10905;DHT22;5505;51.450;9.254;2023-08-01T07:02:43;16.40;99.90
10905;DHT22;5505;51.450;9.254;2023-08-01T07:05:30;15.50;99.90
10905;DHT22;5505;51.450;9.254;2023-08-01T07:08:17;15.50;99.90
10905;DHT22;5505;51.450;9.254;2023-08-01T07:11:04;15.40;99.90
10905;DHT22;5505;51.450;9.254;2023-08-01T07:13:52;15.40;99.90
10905;DHT22;5505;51.450;9.254;2023-08-01T07:16:39;15.40;99.90
10905;DHT22;5505;51.450;9.254;2023-08-01T07:19:25;15.40;99.90
10905;DHT22;5505;51.450;9.254;2023-08-01T07:22:12;15.40;99.90
10905;DHT22;5505;51.450;9.254;2023-08-01T07:24:59;15.30;99.90
10905;DHT22;5505;51.450;9.254;2023-08-01T07:27:46;15.30;99.90
10905;DHT22;5505;51.450;9.254;2023-08-01T07:30:34;15.40;99.90
10905;DHT22;5505;51.450;9.254;2023-08-01T07:33:21;15.30;99.90
10905;DHT22;5505;51.450;9.254;2023-08-01T07:36:07;15.30;99.90
10905;DHT22;5505;51.450;9.254;2023-08-01T07:38:54;15.40;99.90
10905;DHT22;5505;51.450;9.254;2023-08-01T07:41:41;15.40;99.90
10905;DHT22;5505;51.450;9.254;2023-08-01T07:44:28;15.50;99.90
10905;DHT22;5505;51.450;9.254;2023-08-01T07:47:16;15.50;99.90
10905;DHT22;5505;51.450;9.254;2023-08-01T07:50:04;15.50;99.90
10905;DHT22;5505;51.450;9.254;2023-08-01T07:52:50;15.50;99.90
10905;DHT22;5505;51.450;9.254;2023-08-01T07:55:37;15.50;99.90
10905;DHT22;5505;51.450;9.254;2023-08-01T07:58:24;15.60;99.90
10905;DHT22;5505;51.450;9.254;2023-08-01T08:01:11;15.70;99.90
10905;DHT22;5505;51.450;9.254;2023-08-01T08:03:59;15.80;99.90
10905;DHT22;5505;51.450;9.254;2023-08-01T08:06:45;16.00;99.90
10905;DHT22;5505;51.450;9.254;2023-08-01T08:09:32;16.00;99.90
10905;DHT22;5505;51.450;9.254;2023-08-01T08:12:19;16.10;99.90
10905;DHT22;5505;51.450;9.254;2023-08-01T08:15:07;16.10;99.90
10905;DHT22;5505;51.450;9.254;2023-08-01T08:17:53;16.20;99.90
10905;DHT22;5505;51.450;9.254;2023-08-01T08:20:44;16.20;99.90
10905;DHT22;5505;51.450;9.254;2023-08-01T08:23:30;16.30;99.90
10905;DHT22;5505;51.450;9.254;2023-08-01T08:26:17;16.40;99.90
10905;DHT22;5505;51.450;9.254;2023-08-01T08:29:04;16.40;99.90
10905;DHT22;5505;51.450;9.254;2023-08-01T08:31:51;16.40;99.90
10905;DHT22;5505;51.450;9.254;2023-08-01T08:34:38;16.30;99.90
10905;DHT22;5505;51.450;9.254;2023-08-01T08:37:26;16.30;99.90
10905;DHT22;5505;51.450;9.254;2023-08-01T08:40:13;16.30;99.90
10905;DHT22;5505;51.450;9.254;2023-08-01T08:43:01;16.30;99.90
10905;DHT22;5505;51.450;9.254;2023-08-01T08:45:49;16.40;99.90
10905;DHT22;5505;51.450;9.254;2023-08-01T08:48:39;16.50;99.90
10905;DHT22;5505;51.450;9.254;2023-08-01T08:51:28;16.50;99.90
10905;DHT22;5505;51.450;9.254;2023-08-01T08:54:18;16.50;99.90
10905;DHT22;5505;51.450;9.254;2023-08-01T08:57:06;16.70;99.90
10905;DHT22;5505;51.450;9.254;2023-08-01T08:59:54;16.90;99.90
10905;DHT22;5505;51.450;9.254;2023-08-01T09:02:42;17.10;99.90
10905;DHT22;5505;51.450;9.254;2023-08-01T09:05:33;18.40;99.90
10905;DHT22;5505;51.450;9.254;2023-08-01T09:08:21;17.40;99.90
10905;DHT22;5505;51.450;9.254;2023-08-01T09:11:11;17.40;99.90
10905;DHT22;5505;51.450;9.254;2023-08-01T09:13:58;17.40;99.90
10905;DHT22;5505;51.450;9.254;2023-08-01T09:16:45;17.30;99.90
10905;DHT22;5505;51.450;9.254;2023-08-01T09:19:33;17.30;99.90
10905;DHT22;5505;51.450;9.254;2023-08-01T09:22:20;17.30;99.90
10905;DHT22;5505;51.450;9.254;2023-08-01T09:25:07;17.30;99.90
10905;DHT22;5505;51.450;9.254;2023-08-01T09:27:55;17.40;99.90
10905;DHT22;5505;51.450;9.254;2023-08-01T09:30:46;17.50;99.90
10905;DHT22;5505;51.450;9.254;2023-08-01T09:33:38;17.70;99.90
10905;DHT22;5505;51.450;9.254;2023-08-01T09:36:26;17.80;99.90
10905;DHT22;5505;51.450;9.254;2023-08-01T09:39:16;18.10;99.90
10905;DHT22;5505;51.450;9.254;2023-08-01T09:42:03;18.50;99.90
10905;DHT22;5505;51.450;9.254;2023-08-01T09:44:51;18.10;99.90
10905;DHT22;5505;51.450;9.254;2023-08-01T09:47:38;18.00;99.90
10905;DHT22;5505;51.450;9.254;2023-08-01T09:50:25;17.90;99.90
10905;DHT22;5505;51.450;9.254;2023-08-01T09:53:12;17.80;99.90
10905;DHT22;5505;51.450;9.254;2023-08-01T09:56:00;17.70;99.90
10905;DHT22;5505;51.450;9.254;2023-08-01T09:58:47;17.70;99.90
10905;DHT22;5505;51.450;9.254;2023-08-01T10:01:36;17.80;99.90
10905;DHT22;5505;51.450;9.254;2023-08-01T10:04:27;18.90;99.90
10905;DHT22;5505;51.450;9.254;2023-08-01T10:07:19;18.20;99.90
10905;DHT22;5505;51.450;9.254;2023-08-01T10:10:08;18.20;99.90
10905;DHT22;5505;51.450;9.254;2023-08-01T10:12:56;18.20;99.90
10905;DHT22;5505;51.450;9.254;2023-08-01T10:15:44;18.00;99.90
10905;DHT22;5505;51.450;9.254;2023-08-01T10:18:32;17.90;99.90
10905;DHT22;5505;51.450;9.254;2023-08-01T10:21:20;17.70;99.90
10905;DHT22;5505;51.450;9.254;2023-08-01T10:24:08;17.70;99.90
10905;DHT22;5505;51.450;9.254;2023-08-01T10:26:56;17.90;99.90
10905;DHT22;5505;51.450;9.254;2023-08-01T10:29:42;18.10;99.90
10905;DHT22;5505;51.450;9.254;2023-08-01T10:32:31;18.30;99.90
10905;DHT22;5505;51.450;9.254;2023-08-01T10:35:19;18.60;99.90
10905;DHT22;5505;51.450;9.254;2023-08-01T10:38:07;18.90;99.90
10905;DHT22;5505;51.450;9.254;2023-08-01T10:40:54;19.00;99.90
10905;DHT22;5505;51.450;9.254;2023-08-01T10:43:41;19.10;99.90
10905;DHT22;5505;51.450;9.254;2023-08-01T10:46:28;19.00;99.90
10905;DHT22;5505;51.450;9.254;2023-08-01T10:49:15;18.90;99.90
10905;DHT22;5505;51.450;9.254;2023-08-01T10:52:15;19.00;99.90
10905;DHT22;5505;51.450;9.254;2023-08-01T10:55:03;18.90;99.90
10905;DHT22;5505;51.450;9.254;2023-08-01T10:57:50;18.90;99.90
10905;DHT22;5505;51.450;9.254;2023-08-01T11:00:39;19.10;99.90
10905;DHT22;5505;51.450;9.254;2023-08-01T11:03:34;19.20;99.90
10905;DHT22;5505;51.450;9.254;2023-08-01T11:06:21;19.10;99.90
10905;DHT22;5505;51.450;9.254;2023-08-01T11:09:20;19.10;99.90
10905;DHT22;5505;51.450;9.254;2023-08-01T11:12:07;19.00;99.90
10905;DHT22;5505;51.450;9.254;2023-08-01T11:14:59;19.00;99.90
10905;DHT22;5505;51.450;9.254;2023-08-01T11:17:48;19.10;99.90
10905;DHT22;5505;51.450;9.254;2023-08-01T11:20:38;19.10;99.90
10905;DHT22;5505;51.450;9.254;2023-08-01T11:23:29;19.20;99.90
10905;DHT22;5505;51.450;9.254;2023-08-01T11:26:17;19.30;99.90
10905;DHT22;5505;51.450;9.254;2023-08-01T11:29:04;19.30;99.90
10905;DHT22;5505;51.450;9.254;2023-08-01T11:31:53;17.70;99.90
10905;DHT22;5505;51.450;9.254;2023-08-01T11:34:40;19.10;99.90
10905;DHT22;5505;51.450;9.254;2023-08-01T11:37:29;19.00;99.90
10905;DHT22;5505;51.450;9.254;2023-08-01T11:40:17;18.80;99.90
10905;DHT22;5505;51.450;9.254;2023-08-01T11:43:05;18.70;99.90
10905;DHT22;5505;51.450;9.254;2023-08-01T11:45:53;18.60;99.90
10905;DHT22;5505;51.450;9.254;2023-08-01T11:48:44;18.50;99.90
10905;DHT22;5505;51.450;9.254;2023-08-01T11:51:38;18.40;99.90
10905;DHT22;5505;51.450;9.254;2023-08-01T11:54:26;19.10;99.90
10905;DHT22;5505;51.450;9.254;2023-08-01T11:57:12;18.70;99.90
10905;DHT22;5505;51.450;9.254;2023-08-01T12:00:00;18.40;99.90
10905;DHT22;5505;51.450;9.254;2023-08-01T12:02:48;18.40;99.90
10905;DHT22;5505;51.450;9.254;2023-08-01T12:05:34;18.50;99.90
10905;DHT22;5505;51.450;9.254;2023-08-01T12:08:21;18.70;99.90
10905;DHT22;5505;51.450;9.254;2023-08-01T12:11:18;18.90;99.90
10905;DHT22;5505;51.450;9.254;2023-08-01T12:14:07;19.00;99.90
10905;DHT22;5505;51.450;9.254;2023-08-01T12:16:56;19.20;99.90
10905;DHT22;5505;51.450;9.254;2023-08-01T12:19:43;19.40;99.90
10905;DHT22;5505;51.450;9.254;2023-08-01T12:22:29;19.50;99.90
10905;DHT22;5505;51.450;9.254;2023-08-01T12:25:16;19.60;99.90
10905;DHT22;5505;51.450;9.254;2023-08-01T12:28:03;18.20;99.90
10905;DHT22;5505;51.450;9.254;2023-08-01T12:30:50;19.60;99.90
10905;DHT22;5505;51.450;9.254;2023-08-01T12:33:38;19.60;99.90
10905;DHT22;5505;51.450;9.254;2023-08-01T12:36:25;19.60;99.90
10905;DHT22;5505;51.450;9.254;2023-08-01T12:39:12;19.50;99.90
10905;DHT22;5505;51.450;9.254;2023-08-01T12:41:58;19.40;99.90
10905;DHT22;5505;51.450;9.254;2023-08-01T12:44:45;19.50;99.90
10905;DHT22;5505;51.450;9.254;2023-08-01T12:47:32;19.60;99.90
10905;DHT22;5505;51.450;9.254;2023-08-01T12:50:20;19.40;99.90
10905;DHT22;5505;51.450;9.254;2023-08-01T12:53:07;19.30;99.90
10905;DHT22;5505;51.450;9.254;2023-08-01T12:55:53;19.10;99.90
10905;DHT22;5505;51.450;9.254;2023-08-01T12:58:40;19.00;99.90
10905;DHT22;5505;51.450;9.254;2023-08-01T13:01:27;19.10;99.90
10905;DHT22;5505;51.450;9.254;2023-08-01T13:04:14;19.30;99.90
10905;DHT22;5505;51.450;9.254;2023-08-01T13:07:02;19.70;99.90
10905;DHT22;5505;51.450;9.254;2023-08-01T13:09:49;19.90;99.90
10905;DHT22;5505;51.450;9.254;2023-08-01T13:12:35;19.90;99.90
10905;DHT22;5505;51.450;9.254;2023-08-01T13:15:22;20.20;99.90
10905;DHT22;5505;51.450;9.254;2023-08-01T13:18:09;19.80;99.90
10905;DHT22;5505;51.450;9.254;2023-08-01T13:20:56;19.50;99.90
10905;DHT22;5505;51.450;9.254;2023-08-01T13:23:46;20.40;99.90
10905;DHT22;5505;51.450;9.254;2023-08-01T13:26:33;19.30;99.90
10905;DHT22;5505;51.450;9.254;2023-08-01T13:29:20;19.00;99.90
10905;DHT22;5505;51.450;9.254;2023-08-01T13:32:07;18.80;99.90
10905;DHT22;5505;51.450;9.254;2023-08-01T13:34:54;18.60;99.90
10905;DHT22;5505;51.450;9.254;2023-08-01T13:37:41;18.40;99.90
10905;DHT22;5505;51.450;9.254;2023-08-01T13:40:29;18.20;99.90
10905;DHT22;5505;51.450;9.254;2023-08-01T13:43:16;18.00;99.90
10905;DHT22;5505;51.450;9.254;2023-08-01T13:46:11;18.20;99.90
10905;DHT22;5505;51.450;9.254;2023-08-01T13:48:58;17.40;99.90
10905;DHT22;5505;51.450;9.254;2023-08-01T13:51:45;17.10;99.90
10905;DHT22;5505;51.450;9.254;2023-08-01T13:54:32;16.90;99.90
10905;DHT22;5505;51.450;9.254;2023-08-01T13:57:20;16.80;99.90
10905;DHT22;5505;51.450;9.254;2023-08-01T14:00:10;16.80;99.90
10905;DHT22;5505;51.450;9.254;2023-08-01T14:02:57;16.90;99.90
10905;DHT22;5505;51.450;9.254;2023-08-01T14:05:44;17.20;99.90
10905;DHT22;5505;51.450;9.254;2023-08-01T14:08:30;17.60;99.90
10905;DHT22;5505;51.450;9.254;2023-08-01T14:11:17;17.60;99.90
10905;DHT22;5505;51.450;9.254;2023-08-01T14:14:05;17.80;99.90
10905;DHT22;5505;51.450;9.254;2023-08-01T14:16:52;18.10;99.90
10905;DHT22;5505;51.450;9.254;2023-08-01T14:19:40;18.30;99.90
10905;DHT22;5505;51.450;9.254;2023-08-01T14:22:27;18.50;99.90
10905;DHT22;5505;51.450;9.254;2023-08-01T14:25:14;18.70;99.90
10905;DHT22;5505;51.450;9.254;2023-08-01T14:28:00;18.80;99.90
10905;DHT22;5505;51.450;9.254;2023-08-01T14:30:48;18.90;99.90
10905;DHT22;5505;51.450;9.254;2023-08-01T14:33:35;19.00;99.90
10905;DHT22;5505;51.450;9.254;2023-08-01T14:36:22;19.10;99.90
10905;DHT22;5505;51.450;9.254;2023-08-01T14:39:09;19.20;99.90
10905;DHT22;5505;51.450;9.254;2023-08-01T14:41:56;19.10;99.90
10905;DHT22;5505;51.450;9.254;2023-08-01T14:44:42;19.10;99.90
10905;DHT22;5505;51.450;9.254;2023-08-01T14:47:30;19.00;99.90
10905;DHT22;5505;51.450;9.254;2023-08-01T14:50:20;19.00;99.90
10905;DHT22;5505;51.450;9.254;2023-08-01T14:53:06;19.00;99.90
10905;DHT22;5505;51.450;9.254;2023-08-01T14:55:57;19.00;99.90
10905;DHT22;5505;51.450;9.254;2023-08-01T14:58:45;19.00;99.90
10905;DHT22;5505;51.450;9.254;2023-08-01T15:01:32;19.10;99.90
10905;DHT22;5505;51.450;9.254;2023-08-01T15:04:20;19.10;99.90
10905;DHT22;5505;51.450;9.254;2023-08-01T15:07:07;19.20;99.90
10905;DHT22;5505;51.450;9.254;2023-08-01T15:09:54;19.20;99.90
10905;DHT22;5505;51.450;9.254;2023-08-01T15:12:41;19.20;99.90
10905;DHT22;5505;51.450;9.254;2023-08-01T15:15:27;19.30;99.90
10905;DHT22;5505;51.450;9.254;2023-08-01T15:18:14;19.40;99.90
10905;DHT22;5505;51.450;9.254;2023-08-01T15:21:02;19.50;99.90
10905;DHT22;5505;51.450;9.254;2023-08-01T15:23:49;19.70;99.90
10905;DHT22;5505;51.450;9.254;2023-08-01T15:26:36;20.30;99.90
10905;DHT22;5505;51.450;9.254;2023-08-01T15:29:23;19.60;99.90
10905;DHT22;5505;51.450;9.254;2023-08-01T15:32:09;19.60;99.90
10905;DHT22;5505;51.450;9.254;2023-08-01T15:34:56;19.60;99.90
10905;DHT22;5505;51.450;9.254;2023-08-01T15:37:44;19.70;99.90
10905;DHT22;5505;51.450;9.254;2023-08-01T15:40:31;19.70;99.90
10905;DHT22;5505;51.450;9.254;2023-08-01T15:43:18;19.70;99.90
10905;DHT22;5505;51.450;9.254;2023-08-01T15:46:05;19.60;99.90
10905;DHT22;5505;51.450;9.254;2023-08-01T15:48:52;19.60;99.90
10905;DHT22;5505;51.450;9.254;2023-08-01T15:51:39;19.80;99.90
10905;DHT22;5505;51.450;9.254;2023-08-01T15:54:27;19.90;99.90
10905;DHT22;5505;51.450;9.254;2023-08-01T15:57:14;20.00;99.90
10905;DHT22;5505;51.450;9.254;2023-08-01T16:00:03;20.10;99.90
10905;DHT22;5505;51.450;9.254;2023-08-01T16:02:50;20.20;99.90
10905;DHT22;5505;51.450;9.254;2023-08-01T16:05:37;20.20;99.90
10905;DHT22;5505;51.450;9.254;2023-08-01T16:08:24;20.30;99.90
10905;DHT22;5505;51.450;9.254;2023-08-01T16:11:13;20.20;99.90
10905;DHT22;5505;51.450;9.254;2023-08-01T16:14:00;20.10;99.90
10905;DHT22;5505;51.450;9.254;2023-08-01T16:16:47;20.10;99.90
10905;DHT22;5505;51.450;9.254;2023-08-01T16:19:34;20.10;99.90
10905;DHT22;5505;51.450;9.254;2023-08-01T16:22:21;20.00;99.90
10905;DHT22;5505;51.450;9.254;2023-08-01T16:25:08;19.80;99.90
10905;DHT22;5505;51.450;9.254;2023-08-01T16:27:57;19.60;99.90
10905;DHT22;5505;51.450;9.254;2023-08-01T16:30:44;19.50;99.90
10905;DHT22;5505;51.450;9.254;2023-08-01T16:33:30;19.50;99.90
10905;DHT22;5505;51.450;9.254;2023-08-01T16:36:17;19.50;99.90
10905;DHT22;5505;51.450;9.254;2023-08-01T16:39:04;19.50;99.90
10905;DHT22;5505;51.450;9.254;2023-08-01T16:41:51;19.40;99.90
10905;DHT22;5505;51.450;9.254;2023-08-01T16:44:40;19.40;99.90
10905;DHT22;5505;51.450;9.254;2023-08-01T16:47:27;19.20;99.90
10905;DHT22;5505;51.450;9.254;2023-08-01T16:50:14;19.20;99.90
10905;DHT22;5505;51.450;9.254;2023-08-01T16:53:01;19.40;99.90
10905;DHT22;5505;51.450;9.254;2023-08-01T16:55:48;19.60;99.90
10905;DHT22;5505;51.450;9.254;2023-08-01T16:58:35;19.70;99.90
10905;DHT22;5505;51.450;9.254;2023-08-01T17:01:23;19.80;99.90
10905;DHT22;5505;51.450;9.254;2023-08-01T17:04:10;19.80;99.90
10905;DHT22;5505;51.450;9.254;2023-08-01T17:06:57;19.80;99.90
10905;DHT22;5505;51.450;9.254;2023-08-01T17:09:46;19.80;99.90
10905;DHT22;5505;51.450;9.254;2023-08-01T17:12:33;19.80;99.90
10905;DHT22;5505;51.450;9.254;2023-08-01T17:15:19;19.80;99.90
10905;DHT22;5505;51.450;9.254;2023-08-01T17:18:08;19.80;99.90
10905;DHT22;5505;51.450;9.254;2023-08-01T17:20:54;19.80;99.90
10905;DHT22;5505;51.450;9.254;2023-08-01T17:23:41;19.80;99.90
10905;DHT22;5505;51.450;9.254;2023-08-01T17:26:28;19.80;99.90
10905;DHT22;5505;51.450;9.254;2023-08-01T17:29:15;19.70;99.90
10905;DHT22;5505;51.450;9.254;2023-08-01T17:32:01;19.70;99.90
10905;DHT22;5505;51.450;9.254;2023-08-01T17:34:50;19.60;99.90
10905;DHT22;5505;51.450;9.254;2023-08-01T17:37:36;19.50;99.90
10905;DHT22;5505;51.450;9.254;2023-08-01T17:40:23;19.40;99.90
10905;DHT22;5505;51.450;9.254;2023-08-01T17:43:10;19.20;99.90
10905;DHT22;5505;51.450;9.254;2023-08-01T17:45:57;19.10;99.90
10905;DHT22;5505;51.450;9.254;2023-08-01T17:48:44;18.90;99.90
10905;DHT22;5505;51.450;9.254;2023-08-01T17:51:32;18.80;99.90
10905;DHT22;5505;51.450;9.254;2023-08-01T17:54:18;18.70;99.90